Airport Name : Kapolei Kalaeloa / John Rogers Fld

Other Name : Kapolei

ICAO : PHJR

IATA : JRF

FAA : PJRF

Latitude : 21.307353

Longitude : -158.070303

Country : United States

Local Date and Time : 20 Jul 2024 22:05

 

TAF (Terminal Aerodrome Forecast)

PHJR 210521Z 2106/2206 VRB06KT P6SM FEW030 SCT050 FM211900 11011KT P6SM FEW030 FM220500 10006KT P6SM FEW030 SCT050

 

METAR (METeorological Aerodrome Report)

PHJR 210753Z 05003KT 10SM CLR 23/19 A3009 RMK AO2 SLP196 T02280194

PHJR 210653Z 05003KT 10SM CLR 23/19 A3008 RMK AO2 SLP193 T02330194

PHJR 210553Z 04004KT 10SM CLR 24/19 A3006 RMK AO2 SLP186 T02440194 10278 20244 53015

PHJR 210453Z VRB04KT 10SM CLR 26/19 A3004 RMK AO2 SLP178 T02560194